This is the latest recevied weather packets stored in our database for station/object DG8SBT-10. If no packets are shown the sender has not sent any weather packets the latest 10 day(s).
| Time | Temp. | Humidity | Pressure | Rain* | Wind** | Luminosity | Snow |
|---|---|---|---|---|---|---|---|
| 1788000506 | 26.67° C | 38% | 1018.3 hPa | - | - | - | - |
| 1787999606 | 27.22° C | 39% | 1018.3 hPa | - | - | - | - |
| 1787998706 | 26.67° C | 40% | 1018.4 hPa | - | - | - | - |
| 1787997806 | 26.67° C | 40% | 1018.6 hPa | - | - | - | - |
| 1787996906 | 26.11° C | 41% | 1018.8 hPa | - | - | - | - |
| 1787996006 | 25.56° C | 43% | 1018.9 hPa | - | - | - | - |
| 1787995106 | 25° C | 44% | 1019 hPa | - | - | - | - |
| 1787994206 | 25° C | 46% | 1019.2 hPa | - | - | - | - |
| 1787993306 | 24.44° C | 47% | 1019.2 hPa | - | - | - | - |
| 1787992405 | 23.89° C | 48% | 1019.2 hPa | - | - | - | - |
| 1787991505 | 23.89° C | 49% | 1019.2 hPa | - | - | - | - |
| 1787990605 | 23.33° C | 50% | 1019.2 hPa | - | - | - | - |
| 1787989705 | 23.89° C | 49% | 1019.2 hPa | - | - | - | - |
| 1787988805 | 23.89° C | 48% | 1019.2 hPa | - | - | - | - |
| 1787987905 | 23.89° C | 49% | 1019.2 hPa | - | - | - | - |
| 1787987005 | 22.78° C | 54% | 1019.2 hPa | - | - | - | - |
| 1787986105 | 22.78° C | 54% | 1019.3 hPa | - | - | - | - |
| 1787985205 | 23.33° C | 53% | 1019.2 hPa | - | - | - | - |
| 1787984304 | 24.44° C | 51% | 1019.1 hPa | - | - | - | - |
| 1787983404 | 22.78° C | 54% | 1019.2 hPa | - | - | - | - |
| 1787982504 | 23.33° C | 54% | 1019.1 hPa | - | - | - | - |
| 1787981604 | 22.22° C | 56% | 1019.1 hPa | - | - | - | - |
| 1787980704 | 22.22° C | 57% | 1019.2 hPa | - | - | - | - |
| 1787979804 | 21.67° C | 57% | 1019.2 hPa | - | - | - | - |
| 1787978904 | 21.67° C | 57% | 1019 hPa | - | - | - | - |
* Rain since midnight (hover to see other rain measurements)
** Current wind speed in m/s (hover to see current wind gust speed)